createdAt,value
2022-11-28T00:01:26.284Z,1.70
2022-11-28T00:03:53.123Z,1.80
2022-11-28T00:06:20.827Z,2.18
2022-11-28T00:08:47.694Z,2.52
2022-11-28T00:11:16.503Z,1.26
2022-11-28T00:13:44.293Z,1.92
2022-11-28T00:16:16.090Z,2.46
2022-11-28T00:18:43.113Z,2.59
2022-11-28T00:21:12.734Z,2.49
2022-11-28T00:23:39.559Z,1.37
2022-11-28T00:26:12.888Z,2.36
2022-11-28T00:28:39.457Z,2.52
2022-11-28T00:31:06.462Z,2.36
2022-11-28T00:33:33.764Z,2.16
2022-11-28T00:36:02.468Z,2.27
2022-11-28T00:38:29.914Z,1.89
2022-11-28T00:41:04.432Z,2.47
2022-11-28T00:43:31.401Z,2.32
2022-11-28T00:45:57.876Z,2.02
2022-11-28T00:48:25.676Z,2.26
2022-11-28T00:50:53.021Z,2.30
2022-11-28T00:53:19.869Z,2.18
2022-11-28T00:55:46.547Z,2.32
2022-11-28T00:58:13.358Z,2.51
2022-11-28T01:00:39.998Z,1.82
2022-11-28T01:03:06.596Z,2.33
2022-11-28T01:05:33.166Z,2.56
2022-11-28T01:07:59.781Z,2.63
2022-11-28T01:10:27.233Z,2.30
2022-11-28T01:12:53.965Z,2.60
2022-11-28T01:15:20.529Z,2.55
2022-11-28T01:17:47.066Z,2.55
2022-11-28T01:20:13.944Z,2.61
2022-11-28T01:22:40.557Z,1.89
2022-11-28T01:25:07.490Z,1.67
2022-11-28T01:27:34.048Z,2.45
2022-11-28T01:30:00.573Z,2.57
2022-11-28T01:32:27.270Z,2.18
2022-11-28T01:34:53.785Z,1.55
2022-11-28T01:37:20.319Z,2.51
2022-11-28T01:39:46.931Z,2.58
2022-11-28T01:42:19.181Z,2.62
2022-11-28T01:44:48.810Z,2.70
2022-11-28T01:47:29.482Z,1.75
2022-11-28T01:49:56.367Z,2.39
2022-11-28T01:52:23.844Z,1.58
2022-11-28T01:54:59.806Z,1.67
2022-11-28T01:57:28.003Z,2.52
2022-11-28T02:00:05.498Z,2.72
2022-11-28T02:02:48.388Z,2.71
2022-11-28T02:05:16.929Z,2.75
2022-11-28T02:07:44.563Z,2.74
2022-11-28T02:10:15.150Z,2.68
2022-11-28T02:12:54.412Z,2.72
2022-11-28T02:15:43.340Z,2.77
2022-11-28T02:18:54.450Z,2.67
2022-11-28T02:21:50.702Z,2.50
2022-11-28T02:24:31.772Z,2.59
2022-11-28T02:27:04.482Z,2.58
2022-11-28T02:29:46.321Z,2.57
2022-11-28T02:32:22.216Z,2.62
2022-11-28T02:35:20.471Z,2.63
2022-11-28T02:37:59.033Z,2.59
2022-11-28T02:40:34.706Z,2.53
2022-11-28T02:43:10.341Z,2.56
2022-11-28T02:46:20.504Z,2.57
2022-11-28T02:48:55.023Z,2.46
2022-11-28T02:51:42.074Z,2.51
2022-11-28T02:54:12.068Z,2.32
2022-11-28T02:56:39.083Z,2.37
2022-11-28T02:59:47.027Z,2.16
2022-11-28T03:02:27.733Z,2.49
2022-11-28T03:05:13.154Z,2.42
2022-11-28T03:07:54.966Z,2.41
2022-11-28T03:10:40.662Z,2.49
2022-11-28T03:13:22.886Z,2.55
2022-11-28T03:16:11.321Z,2.58
2022-11-28T03:19:13.955Z,2.64
2022-11-28T03:21:47.292Z,2.47
2022-11-28T03:24:25.640Z,2.02
2022-11-28T03:27:06.176Z,2.45
2022-11-28T03:29:46.519Z,2.57
2022-11-28T03:32:22.381Z,2.60
2022-11-28T03:34:56.051Z,2.63
2022-11-28T03:37:25.803Z,2.59
2022-11-28T03:40:00.159Z,1.96
2022-11-28T03:42:31.627Z,1.99
2022-11-28T03:45:13.118Z,2.20
2022-11-28T03:47:44.918Z,2.55
2022-11-28T03:50:18.041Z,2.57
2022-11-28T03:52:52.990Z,1.63
2022-11-28T03:55:34.948Z,1.84
2022-11-28T03:58:12.443Z,2.68
2022-11-28T04:00:51.443Z,2.50
2022-11-28T04:03:30.660Z,2.51
2022-11-28T04:06:05.550Z,2.73
2022-11-28T04:08:56.474Z,2.43
2022-11-28T04:11:29.001Z,2.78
2022-11-28T04:14:05.987Z,2.38
2022-11-28T04:17:09.666Z,2.52
2022-11-28T04:19:58.544Z,2.07
2022-11-28T04:22:30.832Z,2.93
2022-11-28T04:25:13.878Z,2.92
2022-11-28T04:28:14.620Z,2.77
2022-11-28T04:30:43.421Z,2.93
2022-11-28T04:33:13.540Z,3.01
2022-11-28T04:35:45.380Z,2.81
2022-11-28T04:38:13.114Z,2.11
2022-11-28T04:40:48.396Z,3.06
2022-11-28T04:43:28.428Z,2.86
2022-11-28T04:46:01.523Z,1.88
2022-11-28T04:48:33.967Z,2.40
2022-11-28T04:51:22.620Z,3.04
2022-11-28T04:54:04.682Z,2.86
2022-11-28T04:56:37.723Z,2.89
2022-11-28T04:59:06.439Z,2.95
2022-11-28T05:01:34.683Z,2.95
2022-11-28T05:05:12.073Z,3.01
2022-11-28T05:08:45.886Z,2.85
2022-11-28T05:14:53.227Z,1.95
2022-11-28T05:17:22.839Z,1.68
2022-11-28T05:19:56.784Z,2.14
2022-11-28T05:22:23.600Z,2.01
2022-11-28T05:24:50.465Z,2.80
2022-11-28T05:27:17.543Z,2.51
2022-11-28T05:29:51.918Z,2.36
2022-11-28T05:32:19.090Z,2.70
2022-11-28T05:34:45.641Z,2.61
2022-11-28T05:37:12.218Z,2.68
2022-11-28T05:39:38.945Z,2.62
2022-11-28T05:42:07.175Z,2.61
2022-11-28T05:44:33.923Z,2.50
2022-11-28T05:47:00.481Z,2.70
2022-11-28T05:49:28.787Z,2.81
2022-11-28T05:51:55.340Z,2.81
2022-11-28T05:54:21.953Z,2.82
2022-11-28T05:56:48.609Z,2.84
2022-11-28T05:59:15.123Z,2.90
2022-11-28T06:01:41.749Z,2.95
2022-11-28T06:04:08.465Z,2.96
2022-11-28T06:06:35.871Z,2.96
2022-11-28T06:09:02.673Z,2.85
2022-11-28T06:11:31.517Z,2.91
2022-11-28T06:13:58.120Z,2.92
2022-11-28T06:16:30.009Z,2.85
2022-11-28T06:18:58.950Z,2.99
2022-11-28T06:21:26.232Z,2.98
2022-11-28T06:23:53.549Z,3.05
2022-11-28T06:26:23.047Z,3.06
2022-11-28T06:28:50.292Z,3.04
2022-11-28T06:31:22.732Z,3.11
2022-11-28T06:33:49.952Z,3.12
2022-11-28T06:36:18.279Z,3.11
2022-11-28T06:38:44.845Z,3.14
2022-11-28T06:41:14.226Z,3.18
2022-11-28T06:43:41.261Z,3.21
2022-11-28T06:46:20.317Z,3.22
2022-11-28T06:48:48.491Z,3.09
2022-11-28T06:51:15.247Z,3.17
2022-11-28T06:53:42.110Z,3.13
2022-11-28T06:56:14.619Z,3.15
2022-11-28T06:58:42.500Z,3.19
2022-11-28T07:01:12.334Z,3.12
2022-11-28T07:03:39.591Z,3.22
2022-11-28T07:06:07.419Z,3.29
2022-11-28T07:08:34.494Z,3.33
2022-11-28T07:11:13.717Z,3.33
2022-11-28T07:13:41.286Z,3.39
2022-11-28T07:16:08.738Z,3.43
2022-11-28T07:18:35.314Z,3.46
2022-11-28T07:21:01.959Z,3.51
2022-11-28T07:23:28.445Z,3.52
2022-11-28T07:26:02.722Z,3.53
2022-11-28T07:28:31.295Z,3.52
2022-11-28T07:31:00.479Z,3.44
2022-11-28T07:33:27.144Z,3.52
2022-11-28T07:35:53.656Z,3.50
2022-11-28T07:38:20.148Z,3.52
2022-11-28T07:40:46.646Z,3.50
2022-11-28T07:43:13.176Z,3.25
2022-11-28T07:45:59.548Z,3.52
2022-11-28T07:48:26.497Z,3.56
2022-11-28T07:50:53.021Z,3.50
2022-11-28T07:53:19.725Z,3.57
2022-11-28T07:55:46.282Z,3.53
2022-11-28T07:58:12.791Z,3.60
2022-11-28T08:00:39.894Z,3.61
2022-11-28T08:03:06.589Z,3.60
2022-11-28T08:05:33.698Z,3.68
2022-11-28T08:08:00.336Z,3.74
2022-11-28T08:10:26.945Z,3.77
2022-11-28T08:12:53.464Z,3.70
2022-11-28T08:15:20.349Z,3.69
2022-11-28T08:17:46.969Z,3.76
2022-11-28T08:20:13.633Z,3.76
2022-11-28T08:22:40.533Z,3.80
2022-11-28T08:25:07.303Z,3.77
2022-11-28T08:27:33.950Z,3.86
2022-11-28T08:30:00.459Z,3.89
2022-11-28T08:32:29.444Z,3.94
2022-11-28T08:34:55.946Z,3.95
2022-11-28T08:37:22.481Z,3.99
2022-11-28T08:39:48.983Z,4.03
2022-11-28T08:42:15.488Z,4.09
2022-11-28T08:44:41.990Z,4.15
2022-11-28T08:47:08.835Z,4.15
2022-11-28T08:49:37.127Z,4.23
2022-11-28T08:52:04.462Z,4.27
2022-11-28T08:54:31.224Z,4.30
2022-11-28T08:56:58.970Z,4.32
2022-11-28T08:59:25.734Z,3.99
2022-11-28T09:01:53.739Z,4.15
2022-11-28T09:04:21.275Z,4.16
2022-11-28T09:06:47.919Z,4.19
2022-11-28T09:09:14.433Z,4.23
2022-11-28T09:11:41.698Z,4.17
2022-11-28T09:14:09.060Z,4.26
2022-11-28T09:16:35.697Z,4.23
2022-11-28T09:19:02.238Z,4.38
2022-11-28T09:21:28.806Z,4.38
2022-11-28T09:23:56.330Z,4.41
2022-11-28T09:26:25.162Z,4.55
2022-11-28T09:28:52.465Z,4.63
2022-11-28T09:31:19.796Z,4.62
2022-11-28T09:33:47.140Z,4.60
2022-11-28T09:36:16.874Z,4.61
2022-11-28T09:38:44.002Z,4.64
2022-11-28T09:41:36.591Z,4.69
2022-11-28T09:44:27.472Z,4.74
2022-11-28T09:46:59.205Z,4.77
2022-11-28T09:49:40.384Z,4.82
2022-11-28T09:52:38.703Z,4.88
2022-11-28T09:55:14.434Z,4.92
2022-11-28T09:57:45.943Z,4.89
2022-11-28T10:00:21.516Z,4.90
2022-11-28T10:03:30.483Z,4.93
2022-11-28T10:06:15.485Z,4.91
2022-11-28T10:09:02.253Z,4.83
2022-11-28T10:11:44.216Z,4.80
2022-11-28T10:14:13.855Z,4.88
2022-11-28T10:17:19.692Z,5.00
2022-11-28T10:19:54.694Z,5.06
2022-11-28T10:22:46.574Z,5.08
2022-11-28T10:25:16.135Z,5.22
2022-11-28T10:27:42.829Z,5.27
2022-11-28T10:30:21.879Z,5.34
2022-11-28T10:33:00.618Z,5.42
2022-11-28T10:35:44.002Z,5.50
2022-11-28T10:38:15.537Z,5.61
2022-11-28T10:41:04.801Z,5.67
2022-11-28T10:44:05.048Z,5.75
2022-11-28T10:46:43.660Z,5.85
2022-11-28T10:49:50.317Z,5.86
2022-11-28T10:52:34.730Z,5.86
2022-11-28T10:55:01.202Z,5.86
2022-11-28T11:00:45.698Z,5.75
2022-11-28T11:03:17.358Z,5.93
2022-11-28T11:05:44.157Z,5.97
2022-11-28T11:08:33.714Z,5.87
2022-11-28T11:11:15.207Z,6.10
2022-11-28T11:14:01.459Z,6.10
2022-11-28T11:16:49.137Z,6.12
2022-11-28T11:19:36.325Z,6.19
2022-11-28T11:22:28.539Z,6.08
2022-11-28T11:25:15.645Z,6.16
2022-11-28T11:28:04.473Z,6.20
2022-11-28T11:30:38.722Z,6.28
2022-11-28T11:33:12.360Z,6.31
2022-11-28T11:35:45.293Z,6.41
2022-11-28T11:38:30.316Z,6.37
2022-11-28T11:41:20.469Z,6.43
2022-11-28T11:43:47.235Z,6.37
2022-11-28T11:46:15.630Z,6.48
2022-11-28T11:48:46.752Z,6.53
2022-11-28T11:51:24.019Z,6.50
2022-11-28T11:54:12.580Z,6.65
2022-11-28T11:56:44.130Z,6.64
2022-11-28T11:59:18.492Z,6.62
2022-11-28T12:01:47.005Z,6.40
2022-11-28T12:04:44.002Z,6.78
2022-11-28T12:07:18.461Z,6.76
2022-11-28T12:09:48.199Z,6.68
2022-11-28T12:12:22.234Z,6.77
2022-11-28T12:14:50.367Z,6.75
2022-11-28T12:17:48.840Z,6.75
2022-11-28T12:20:42.749Z,6.71
2022-11-28T12:23:53.955Z,6.85
2022-11-28T12:26:51.819Z,6.79
2022-11-28T12:29:27.781Z,6.82
2022-11-28T12:32:03.127Z,6.71
2022-11-28T12:34:57.523Z,6.66
2022-11-28T12:40:55.320Z,6.26
2022-11-28T12:43:34.411Z,6.54
2022-11-28T12:46:10.236Z,6.52
2022-11-28T12:49:10.267Z,6.56
2022-11-28T12:51:42.507Z,6.29
2022-11-28T12:54:30.602Z,6.37
2022-11-28T12:57:21.383Z,6.75
2022-11-28T13:00:14.805Z,6.78
2022-11-28T13:03:19.133Z,6.81
2022-11-28T13:06:11.967Z,6.84
2022-11-28T13:08:52.075Z,6.86
2022-11-28T13:11:56.237Z,6.88
2022-11-28T13:14:54.388Z,6.91
2022-11-28T13:17:41.173Z,6.91
2022-11-28T13:20:18.792Z,6.96
2022-11-28T13:23:00.764Z,7.00
2022-11-28T13:25:33.348Z,6.96
2022-11-28T13:31:42.687Z,6.88
2022-11-28T13:34:16.184Z,6.85
2022-11-28T13:39:46.250Z,7.00
2022-11-28T13:43:02.889Z,6.99
2022-11-28T13:45:34.327Z,7.04
2022-11-28T13:51:33.434Z,7.11
2022-11-28T13:54:21.562Z,7.13
2022-11-28T13:57:05.055Z,7.12
2022-11-28T13:59:33.253Z,7.20
2022-11-28T14:02:02.200Z,7.12
2022-11-28T14:04:32.139Z,7.14
2022-11-28T14:07:06.734Z,7.20
2022-11-28T14:09:47.542Z,7.18
2022-11-28T14:12:35.743Z,7.22
2022-11-28T14:15:02.332Z,7.26
2022-11-28T14:17:40.650Z,7.26
2022-11-28T14:20:45.000Z,7.23
2022-11-28T14:23:18.235Z,7.21
2022-11-28T14:25:48.332Z,7.24
2022-11-28T14:28:36.853Z,7.17
2022-11-28T14:31:24.499Z,7.24
2022-11-28T14:33:57.598Z,7.22
2022-11-28T14:36:30.504Z,7.11
2022-11-28T14:39:10.716Z,7.06
2022-11-28T14:42:05.275Z,7.24
2022-11-28T14:44:47.207Z,7.25
2022-11-28T14:47:18.430Z,7.26
2022-11-28T14:49:44.964Z,7.27
2022-11-28T14:52:38.326Z,7.26
2022-11-28T14:55:12.232Z,7.22
2022-11-28T14:57:56.773Z,7.21
2022-11-28T15:00:38.337Z,7.21
2022-11-28T15:03:47.583Z,7.20
2022-11-28T15:06:20.743Z,7.16
2022-11-28T15:08:56.351Z,7.13
2022-11-28T15:11:37.676Z,7.09
2022-11-28T15:14:23.853Z,6.95
2022-11-28T15:16:54.556Z,6.95
2022-11-28T15:19:26.594Z,7.02
2022-11-28T15:21:54.908Z,7.04
2022-11-28T15:24:36.619Z,7.04
2022-11-28T15:27:08.870Z,7.15
2022-11-28T15:29:36.842Z,7.32
2022-11-28T15:32:04.903Z,7.48
2022-11-28T15:34:35.255Z,7.49
2022-11-28T15:37:15.007Z,7.39
2022-11-28T15:39:42.760Z,7.46
2022-11-28T15:42:20.997Z,7.52
2022-11-28T15:44:49.535Z,7.59
2022-11-28T15:47:21.177Z,7.52
2022-11-28T15:50:19.460Z,7.48
2022-11-28T15:53:15.031Z,7.40
2022-11-28T15:55:42.432Z,7.35
2022-11-28T15:58:15.012Z,7.30
2022-11-28T16:00:45.310Z,7.26
2022-11-28T16:03:23.287Z,7.19
2022-11-28T16:05:53.373Z,7.13
2022-11-28T16:08:48.881Z,7.12
2022-11-28T16:11:34.264Z,6.34
2022-11-28T16:14:11.086Z,7.03
2022-11-28T16:16:43.798Z,7.02
2022-11-28T16:19:36.740Z,6.99
2022-11-28T16:22:16.110Z,6.76
2022-11-28T16:24:52.267Z,6.50
2022-11-28T16:27:38.933Z,6.89
2022-11-28T16:33:56.747Z,6.84
2022-11-28T16:36:35.333Z,6.66
2022-11-28T16:39:12.234Z,6.68
2022-11-28T16:41:42.852Z,6.58
2022-11-28T16:44:14.828Z,6.81
2022-11-28T16:47:03.668Z,6.85
2022-11-28T16:49:38.872Z,6.84
2022-11-28T16:52:22.740Z,6.67
2022-11-28T16:54:54.942Z,6.84
2022-11-28T16:57:25.459Z,6.84
2022-11-28T16:59:59.024Z,6.85
2022-11-28T17:02:29.098Z,6.86
2022-11-28T17:04:57.920Z,6.86
2022-11-28T17:07:27.415Z,6.85
2022-11-28T17:09:55.397Z,6.87
2022-11-28T17:12:25.569Z,6.67
2022-11-28T17:14:59.438Z,6.50
2022-11-28T17:17:31.746Z,6.82
2022-11-28T17:20:02.820Z,6.52
2022-11-28T17:22:46.721Z,6.76
2022-11-28T17:25:16.158Z,6.73
2022-11-28T17:27:45.895Z,6.73
2022-11-28T17:30:15.299Z,6.31
2022-11-28T17:32:43.968Z,6.62
2022-11-28T17:35:24.481Z,6.44
2022-11-28T17:37:53.535Z,6.55
2022-11-28T17:40:36.819Z,6.28
2022-11-28T17:43:04.451Z,6.57
2022-11-28T17:45:36.543Z,6.36
2022-11-28T17:48:04.088Z,6.37
2022-11-28T17:50:32.200Z,6.47
2022-11-28T17:52:59.650Z,6.52
2022-11-28T17:55:32.931Z,6.55
2022-11-28T17:58:00.412Z,6.54
2022-11-28T18:00:30.130Z,6.56
2022-11-28T18:02:59.370Z,6.56
2022-11-28T18:05:29.051Z,6.36
2022-11-28T18:07:57.541Z,6.59
2022-11-28T18:10:30.890Z,6.44
2022-11-28T18:12:59.383Z,6.48
2022-11-28T18:15:28.536Z,6.58
2022-11-28T18:17:59.569Z,6.59
2022-11-28T18:20:28.887Z,6.56
2022-11-28T18:22:58.620Z,6.52
2022-11-28T18:25:28.390Z,6.54
2022-11-28T18:27:56.653Z,6.53
2022-11-28T18:30:24.042Z,6.34
2022-11-28T18:32:53.726Z,6.38
2022-11-28T18:35:22.677Z,6.50
2022-11-28T18:37:50.685Z,6.31
2022-11-28T18:40:19.568Z,6.54
2022-11-28T18:42:47.240Z,6.49
2022-11-28T18:45:14.038Z,6.33
2022-11-28T18:47:41.197Z,6.19
2022-11-28T18:50:10.162Z,6.19
2022-11-28T18:52:37.268Z,6.36
2022-11-28T18:55:04.546Z,6.37
2022-11-28T18:57:34.645Z,5.98
2022-11-28T19:00:06.772Z,6.36
2022-11-28T19:02:35.508Z,6.35
2022-11-28T19:05:04.810Z,6.41
2022-11-28T19:07:33.760Z,6.26
2022-11-28T19:10:00.801Z,6.38
2022-11-28T19:12:28.695Z,6.35
2022-11-28T19:15:02.306Z,6.39
2022-11-28T19:17:30.598Z,6.40
2022-11-28T19:19:59.619Z,6.41
2022-11-28T19:22:29.119Z,6.38
2022-11-28T19:24:58.264Z,6.10
2022-11-28T19:27:26.706Z,6.39
2022-11-28T19:29:54.142Z,6.12
2022-11-28T19:32:24.566Z,6.66
2022-11-28T19:34:57.520Z,7.14
2022-11-28T19:37:25.742Z,7.29
2022-11-28T19:39:52.433Z,7.04
2022-11-28T19:42:20.243Z,7.11
2022-11-28T19:44:51.715Z,6.89
2022-11-28T19:47:18.277Z,6.68
2022-11-28T19:49:44.984Z,6.40
2022-11-28T19:52:15.850Z,6.56
2022-11-28T19:54:42.830Z,6.53
2022-11-28T19:57:11.276Z,6.61
2022-11-28T19:59:39.295Z,6.56
2022-11-28T20:02:07.801Z,6.59
2022-11-28T20:04:34.448Z,6.45
2022-11-28T20:07:03.558Z,6.57
2022-11-28T20:09:31.615Z,6.50
2022-11-28T20:12:01.008Z,6.45
2022-11-28T20:14:32.684Z,6.19
2022-11-28T20:17:01.769Z,6.45
2022-11-28T20:19:28.904Z,6.45
2022-11-28T20:21:57.799Z,6.25
2022-11-28T20:24:26.293Z,6.44
2022-11-28T20:26:57.170Z,6.26
2022-11-28T20:29:27.938Z,6.22
2022-11-28T20:31:57.584Z,6.37
2022-11-28T20:34:27.715Z,6.38
2022-11-28T20:36:59.637Z,6.38
2022-11-28T20:39:29.388Z,6.15
2022-11-28T20:42:07.553Z,6.06
2022-11-28T20:44:36.310Z,6.18
2022-11-28T20:47:05.555Z,6.30
2022-11-28T20:49:37.026Z,6.28
2022-11-28T20:52:05.686Z,6.37
2022-11-28T20:54:39.408Z,6.36
2022-11-28T20:57:21.365Z,6.37
2022-11-28T20:59:55.630Z,6.18
2022-11-28T21:02:24.722Z,6.16
2022-11-28T21:04:52.638Z,6.33
2022-11-28T21:07:20.497Z,6.14
2022-11-28T21:09:51.877Z,6.28
2022-11-28T21:12:21.283Z,6.10
2022-11-28T21:14:49.298Z,6.08
2022-11-28T21:17:17.174Z,6.26
2022-11-28T21:19:44.493Z,6.12
2022-11-28T21:22:12.610Z,6.19
2022-11-28T21:24:41.110Z,6.10
2022-11-28T21:27:09.714Z,6.08
2022-11-28T21:29:38.858Z,6.28
2022-11-28T21:32:07.443Z,6.14
2022-11-28T21:34:39.638Z,6.22
2022-11-28T21:37:07.523Z,6.30
2022-11-28T21:39:37.842Z,6.29
2022-11-28T21:42:06.772Z,6.31
2022-11-28T21:44:34.288Z,6.32
2022-11-28T21:47:05.690Z,6.32
2022-11-28T21:49:46.554Z,6.33
2022-11-28T21:52:22.631Z,6.36
2022-11-28T21:54:52.074Z,6.34
2022-11-28T21:57:20.726Z,6.07
2022-11-28T21:59:52.680Z,6.08
2022-11-28T22:02:19.919Z,6.29
2022-11-28T22:04:48.427Z,6.29
2022-11-28T22:07:18.741Z,6.31
2022-11-28T22:09:49.284Z,6.03
2022-11-28T22:12:18.436Z,6.25
2022-11-28T22:14:50.670Z,6.25
2022-11-28T22:17:17.940Z,6.29
2022-11-28T22:19:46.988Z,6.17
2022-11-28T22:22:14.817Z,6.14
2022-11-28T22:24:41.609Z,5.92
2022-11-28T22:27:11.879Z,6.38
2022-11-28T22:29:45.006Z,6.31
2022-11-28T22:32:17.640Z,6.38
2022-11-28T22:34:44.920Z,6.14
2022-11-28T22:37:14.244Z,6.12
2022-11-28T22:39:41.379Z,6.40
2022-11-28T22:42:24.933Z,6.02
2022-11-28T22:44:54.765Z,5.65
2022-11-28T22:47:25.787Z,5.67
2022-11-28T22:49:52.671Z,6.42
2022-11-28T22:52:19.429Z,6.50
2022-11-28T22:54:53.007Z,6.51
2022-11-28T22:57:22.425Z,6.19
2022-11-28T22:59:51.719Z,5.98
2022-11-28T23:02:18.985Z,6.39
2022-11-28T23:04:46.982Z,6.50
2022-11-28T23:07:14.465Z,6.49
2022-11-28T23:09:41.451Z,6.25
2022-11-28T23:12:10.627Z,6.35
2022-11-28T23:14:38.770Z,6.53
2022-11-28T23:17:07.969Z,6.54
2022-11-28T23:19:37.352Z,6.58
2022-11-28T23:22:06.400Z,6.62
2022-11-28T23:24:34.603Z,6.61
2022-11-28T23:27:04.260Z,6.32
2022-11-28T23:29:32.277Z,6.53
2022-11-28T23:32:00.456Z,6.59
2022-11-28T23:34:30.764Z,6.62
2022-11-28T23:37:01.769Z,6.64
2022-11-28T23:39:30.650Z,6.63
2022-11-28T23:42:07.937Z,6.59
2022-11-28T23:44:36.361Z,6.64
2022-11-28T23:47:04.694Z,6.60
2022-11-28T23:49:32.201Z,6.55
2022-11-28T23:52:04.629Z,6.58
2022-11-28T23:54:42.013Z,6.57
2022-11-28T23:57:27.636Z,6.25
